Time;durP1;ratioP1;P1;durP2;ratioP2;P2;SDS_P1;SDS_P2;PMS_P1;PMS_P2;Temp;Humidity;BMP_temperature;BMP_pressure;BME280_temperature;BME280_humidity;BME280_pressure;Samples;Min_cycle;Max_cycle;Signal;HPM_P1;HPM_P2
2021/12/26 00:03:08;;;;;;;0.50;0.50;;;;;0.90;95378.00;;;;8219414;28;20323;-68
2021/12/26 00:07:11;;;;;;;0.50;0.50;;;;;0.90;95373.00;;;;8238046;28;20230;-68
2021/12/26 00:11:15;;;;;;;0.60;0.60;;;;;0.90;95379.00;;;;8253603;28;20263;-68
2021/12/26 00:15:20;;;;;;;0.50;0.50;;;;;0.90;95375.00;;;;8246927;28;20666;-68
2021/12/26 00:19:23;;;;;;;0.50;0.50;;;;;0.90;95367.00;;;;8250929;28;20246;-68
2021/12/26 00:23:26;;;;;;;0.50;0.50;;;;;0.90;95362.00;;;;8252980;28;20651;-68
2021/12/26 00:27:29;;;;;;;0.50;0.50;;;;;1.00;95369.00;;;;8251916;28;20255;-68
2021/12/26 00:31:34;;;;;;;0.40;0.40;;;;;1.00;95370.00;;;;8252505;28;20233;-68
2021/12/26 00:35:37;;;;;;;0.50;0.50;;;;;1.00;95362.00;;;;8252013;28;20236;-67
2021/12/26 00:39:41;;;;;;;0.50;0.50;;;;;1.00;95368.00;;;;8252032;28;20354;-68
2021/12/26 00:43:45;;;;;;;0.43;0.43;;;;;1.00;95374.00;;;;8253077;28;20248;-68
2021/12/26 00:47:52;;;;;;;0.50;0.50;;;;;1.00;95369.00;;;;8248122;28;20432;-67
2021/12/26 00:51:55;;;;;;;0.40;0.40;;;;;1.00;95366.00;;;;8251430;28;20265;-67
2021/12/26 00:55:59;;;;;;;0.40;0.40;;;;;1.10;95377.00;;;;8251954;28;20262;-67
2021/12/26 01:00:02;;;;;;;0.50;0.50;;;;;1.10;95382.00;;;;8251135;28;20258;-67
2021/12/26 01:04:07;;;;;;;0.40;0.40;;;;;1.10;95387.00;;;;8250485;28;20759;-67
2021/12/26 01:08:14;;;;;;;0.40;0.40;;;;;1.10;95384.00;;;;8250956;28;20729;-67
2021/12/26 01:12:18;;;;;;;0.40;0.40;;;;;1.10;95392.00;;;;8248771;28;20239;-67
2021/12/26 01:16:23;;;;;;;0.50;0.50;;;;;1.20;95385.00;;;;8251256;28;20315;-67
2021/12/26 01:20:40;;;;;;;0.40;0.40;;;;;1.20;95379.00;;;;8242576;28;20231;-68
2021/12/26 01:24:45;;;;;;;0.43;0.43;;;;;1.20;95379.00;;;;8250123;28;20245;-67
2021/12/26 01:28:49;;;;;;;0.50;0.50;;;;;1.10;95385.00;;;;8252133;28;20741;-67
2021/12/26 01:32:52;;;;;;;0.40;0.40;;;;;1.10;95385.00;;;;8250850;28;20259;-67
2021/12/26 01:36:57;;;;;;;0.50;0.50;;;;;1.20;95394.00;;;;8250424;28;20950;-67
2021/12/26 01:41:08;;;;;;;0.40;0.40;;;;;1.10;95392.00;;;;8250562;28;20239;-67
2021/12/26 01:45:12;;;;;;;0.40;0.40;;;;;1.10;95405.00;;;;8252615;28;20266;-68
2021/12/26 01:49:17;;;;;;;0.50;0.50;;;;;1.10;95394.00;;;;8244893;28;20263;-68
2021/12/26 01:53:25;;;;;;;0.50;0.50;;;;;1.10;95390.00;;;;8251532;28;20250;-68
2021/12/26 01:57:28;;;;;;;0.40;0.40;;;;;1.10;95392.00;;;;8248315;28;20227;-67
2021/12/26 02:01:32;;;;;;;0.40;0.40;;;;;1.10;95372.00;;;;8250428;28;20321;-69
2021/12/26 02:05:35;;;;;;;0.40;0.40;;;;;1.20;95372.00;;;;8244322;28;20281;-68
2021/12/26 02:09:40;;;;;;;0.40;0.40;;;;;1.10;95377.00;;;;8249650;28;20302;-67
2021/12/26 02:13:43;;;;;;;0.40;0.40;;;;;1.20;95399.00;;;;8222964;28;20300;-67
2021/12/26 02:17:47;;;;;;;0.40;0.40;;;;;1.20;95382.00;;;;8218397;28;20312;-67
2021/12/26 02:30:32;;;;;;;0.40;0.40;;;;;1.20;95388.00;;;;8256100;28;20223;-67
2021/12/26 02:34:35;;;;;;;0.40;0.40;;;;;1.20;95375.00;;;;8256553;28;20595;-67
2021/12/26 02:38:40;;;;;;;0.43;0.43;;;;;1.30;95388.00;;;;8256977;28;20253;-66
2021/12/26 02:42:44;;;;;;;0.50;0.50;;;;;1.30;95379.00;;;;8259191;28;20258;-66
2021/12/26 02:46:47;;;;;;;0.40;0.40;;;;;1.40;95388.00;;;;8257371;28;20655;-68
2021/12/26 02:50:56;;;;;;;0.40;0.40;;;;;1.40;95386.00;;;;8254562;28;20266;-67
2021/12/26 02:55:01;;;;;;;0.40;0.40;;;;;1.40;95387.00;;;;8253605;28;20235;-67
2021/12/26 02:59:04;;;;;;;0.50;0.50;;;;;1.40;95383.00;;;;8259370;28;20869;-67
2021/12/26 03:03:08;;;;;;;0.50;0.50;;;;;1.30;95380.00;;;;8319313;22;20325;-67
2021/12/26 03:07:11;;;;;;;0.40;0.40;;;;;1.30;95380.00;;;;8287152;28;20322;-68
2021/12/26 03:11:16;;;;;;;0.40;0.40;;;;;1.30;95383.00;;;;8287958;28;20257;-68
2021/12/26 03:15:20;;;;;;;0.40;0.40;;;;;1.30;95395.00;;;;8286043;28;20246;-67
2021/12/26 03:19:23;;;;;;;0.50;0.50;;;;;1.30;95394.00;;;;8288061;28;20258;-67
2021/12/26 03:23:28;;;;;;;0.40;0.40;;;;;1.20;95398.00;;;;8282581;28;20329;-67
2021/12/26 03:27:32;;;;;;;0.50;0.50;;;;;1.10;95392.00;;;;8287938;28;20262;-67
2021/12/26 03:31:36;;;;;;;0.40;0.40;;;;;1.10;95391.00;;;;8287402;28;21048;-67
2021/12/26 03:35:40;;;;;;;0.50;0.50;;;;;1.10;95380.00;;;;8288060;28;20235;-66
2021/12/26 03:39:43;;;;;;;0.50;0.50;;;;;1.10;95391.00;;;;8287291;28;20272;-65
2021/12/26 03:43:48;;;;;;;0.40;0.40;;;;;1.10;95386.00;;;;8287504;28;20325;-66
2021/12/26 03:47:51;;;;;;;0.40;0.40;;;;;1.10;95376.00;;;;8287718;28;20321;-66
2021/12/26 03:51:55;;;;;;;0.40;0.40;;;;;1.10;95380.00;;;;8287983;28;20272;-67
2021/12/26 03:55:58;;;;;;;0.40;0.40;;;;;1.10;95384.00;;;;8287377;28;20313;-67
2021/12/26 04:00:04;;;;;;;0.50;0.50;;;;;1.10;95388.00;;;;8284039;28;20240;-66
2021/12/26 04:04:07;;;;;;;0.40;0.40;;;;;1.10;95373.00;;;;8283679;28;20239;-66
2021/12/26 04:08:14;;;;;;;0.40;0.40;;;;;1.10;95374.00;;;;8285211;28;20241;-67
2021/12/26 04:12:17;;;;;;;0.40;0.40;;;;;1.10;95388.00;;;;8272056;28;20654;-68
2021/12/26 04:16:22;;;;;;;0.40;0.40;;;;;1.10;95384.00;;;;8266257;28;20312;-68
2021/12/26 04:20:25;;;;;;;0.40;0.40;;;;;1.10;95375.00;;;;8298221;28;20301;-68
2021/12/26 04:24:29;;;;;;;0.40;0.40;;;;;1.10;95382.00;;;;8286414;28;20792;-67
2021/12/26 04:28:33;;;;;;;0.40;0.40;;;;;1.10;95388.00;;;;8286199;28;20227;-67
2021/12/26 04:32:37;;;;;;;0.40;0.40;;;;;1.10;95397.00;;;;8285441;28;20271;-68
2021/12/26 04:36:41;;;;;;;0.40;0.40;;;;;1.10;95398.00;;;;8283836;28;20318;-67
2021/12/26 04:40:44;;;;;;;0.50;0.50;;;;;1.10;95394.00;;;;8279020;28;20257;-68
2021/12/26 04:44:49;;;;;;;0.40;0.40;;;;;1.10;95405.00;;;;8280848;28;20662;-67
2021/12/26 04:48:53;;;;;;;0.50;0.50;;;;;1.10;95397.00;;;;8284165;28;20253;-69
2021/12/26 04:52:57;;;;;;;0.40;0.40;;;;;1.10;95391.00;;;;8285268;28;20261;-68
2021/12/26 04:57:01;;;;;;;0.40;0.40;;;;;1.10;95392.00;;;;8284829;28;20770;-68
2021/12/26 05:01:04;;;;;;;0.40;0.40;;;;;1.10;95397.00;;;;8283743;28;20318;-68
2021/12/26 05:05:11;;;;;;;0.40;0.40;;;;;1.20;95407.00;;;;8280634;28;20323;-68
2021/12/26 05:09:15;;;;;;;0.50;0.50;;;;;1.20;95420.00;;;;8267494;28;20256;-69
2021/12/26 05:13:18;;;;;;;0.47;0.47;;;;;1.20;95426.00;;;;8263006;28;20230;-70
2021/12/26 05:17:21;;;;;;;0.40;0.40;;;;;1.20;95419.00;;;;8271063;28;20254;-69
2021/12/26 05:21:25;;;;;;;0.50;0.50;;;;;1.20;95418.00;;;;8265896;28;20218;-69
2021/12/26 05:25:29;;;;;;;0.50;0.50;;;;;1.30;95412.00;;;;8264845;28;20279;-68
2021/12/26 05:29:32;;;;;;;0.47;0.47;;;;;1.20;95411.00;;;;8268465;28;20263;-68
2021/12/26 05:33:35;;;;;;;0.40;0.40;;;;;1.30;95419.00;;;;8280743;28;20269;-69
2021/12/26 05:37:41;;;;;;;0.50;0.50;;;;;1.30;95424.00;;;;8283582;28;20345;-71
2021/12/26 05:41:44;;;;;;;0.50;0.50;;;;;1.30;95418.00;;;;8283356;28;20317;-71
2021/12/26 05:45:48;;;;;;;0.50;0.50;;;;;1.40;95417.00;;;;8278493;28;21081;-71
2021/12/26 05:49:51;;;;;;;0.50;0.50;;;;;1.30;95405.00;;;;8279087;28;20226;-70
2021/12/26 05:53:57;;;;;;;0.50;0.50;;;;;1.30;95409.00;;;;8280775;28;20305;-71
2021/12/26 05:58:01;;;;;;;0.50;0.50;;;;;1.20;95402.00;;;;8280209;28;20304;-71
2021/12/26 06:02:06;;;;;;;0.50;0.50;;;;;1.20;95415.00;;;;8264152;28;20327;-71
2021/12/26 06:06:09;;;;;;;0.50;0.50;;;;;1.20;95407.00;;;;8279238;28;21013;-71
2021/12/26 06:10:14;;;;;;;0.50;0.50;;;;;1.20;95409.00;;;;8282357;28;20813;-71
2021/12/26 06:14:17;;;;;;;0.50;0.50;;;;;1.20;95404.00;;;;8273462;28;20631;-71
2021/12/26 06:18:20;;;;;;;0.50;0.50;;;;;1.20;95405.00;;;;8285485;28;20253;-72
2021/12/26 06:22:24;;;;;;;0.40;0.40;;;;;1.20;95404.00;;;;8288374;28;20305;-70
2021/12/26 06:26:30;;;;;;;0.50;0.50;;;;;1.20;95415.00;;;;8283187;28;20244;-71
2021/12/26 06:30:33;;;;;;;0.50;0.50;;;;;1.20;95407.00;;;;8277298;28;20716;-71
2021/12/26 06:34:37;;;;;;;0.50;0.50;;;;;1.20;95407.00;;;;8281404;28;20215;-71
2021/12/26 06:38:41;;;;;;;0.50;0.50;;;;;1.20;95411.00;;;;8282760;28;20294;-72
2021/12/26 06:42:50;;;;;;;0.50;0.50;;;;;1.20;95407.00;;;;8281133;28;20233;-71
2021/12/26 06:46:53;;;;;;;0.50;0.50;;;;;1.20;95411.00;;;;8282844;28;20299;-71
2021/12/26 06:50:56;;;;;;;0.47;0.47;;;;;1.20;95417.00;;;;8282670;28;20222;-70
2021/12/26 06:54:59;;;;;;;0.50;0.50;;;;;1.20;95415.00;;;;8284022;28;20329;-71
2021/12/26 06:59:04;;;;;;;0.40;0.40;;;;;1.20;95416.00;;;;8283169;28;20254;-71
2021/12/26 07:03:08;;;;;;;0.40;0.40;;;;;1.30;95423.00;;;;8281626;28;20230;-71
2021/12/26 07:07:11;;;;;;;0.40;0.40;;;;;1.30;95426.00;;;;8282459;28;20600;-71
2021/12/26 07:11:15;;;;;;;0.40;0.40;;;;;1.20;95442.00;;;;8285536;28;20324;-71
2021/12/26 07:15:20;;;;;;;1.17;1.17;;;;;1.30;95444.00;;;;8287078;28;20272;-71
2021/12/26 07:19:26;;;;;;;0.50;0.50;;;;;1.30;95440.00;;;;8285862;28;20272;-71
2021/12/26 07:23:30;;;;;;;0.50;0.50;;;;;1.20;95459.00;;;;8288583;28;20909;-71
2021/12/26 07:27:33;;;;;;;0.50;0.50;;;;;1.20;95448.00;;;;8286468;28;20246;-72
2021/12/26 07:31:37;;;;;;;0.40;0.40;;;;;1.30;95447.00;;;;8286254;28;20260;-71
2021/12/26 07:35:41;;;;;;;0.40;0.40;;;;;1.30;95447.00;;;;8287534;28;20642;-71
2021/12/26 07:39:44;;;;;;;0.40;0.40;;;;;1.30;95448.00;;;;8283305;28;20321;-70
2021/12/26 07:43:47;;;;;;;0.40;0.40;;;;;1.40;95458.00;;;;8287231;28;20242;-71
2021/12/26 07:47:52;;;;;;;0.40;0.40;;;;;1.40;95447.00;;;;8287387;28;20660;-71
2021/12/26 07:51:56;;;;;;;0.40;0.40;;;;;1.60;95447.00;;;;8278454;28;20647;-71
2021/12/26 07:56:00;;;;;;;0.40;0.40;;;;;1.70;95450.00;;;;8285998;28;20283;-71
2021/12/26 08:00:04;;;;;;;0.50;0.50;;;;;1.70;95448.00;;;;8288987;28;20257;-71
2021/12/26 08:04:11;;;;;;;0.50;0.50;;;;;1.80;95445.00;;;;8284853;28;20273;-71
2021/12/26 08:08:15;;;;;;;0.40;0.40;;;;;1.90;95441.00;;;;8277517;28;20225;-70
2021/12/26 08:12:18;;;;;;;0.50;0.50;;;;;1.90;95447.00;;;;8287733;28;20732;-73
2021/12/26 08:16:21;;;;;;;0.50;0.50;;;;;1.90;95451.00;;;;8286898;28;20261;-71
2021/12/26 08:20:26;;;;;;;0.50;0.50;;;;;2.00;95465.00;;;;8283915;28;20647;-71
2021/12/26 08:24:29;;;;;;;0.50;0.50;;;;;2.00;95453.00;;;;8275700;28;20627;-70
2021/12/26 08:28:34;;;;;;;0.40;0.40;;;;;2.10;95460.00;;;;8274119;28;20432;-72
2021/12/26 08:32:40;;;;;;;0.40;0.40;;;;;2.10;95463.00;;;;8283558;28;20269;-70
2021/12/26 08:36:44;;;;;;;0.40;0.40;;;;;2.10;95468.00;;;;8281550;28;20305;-70
2021/12/26 08:40:48;;;;;;;0.40;0.40;;;;;2.20;95472.00;;;;8279212;28;20395;-70
2021/12/26 08:44:53;;;;;;;0.43;0.43;;;;;2.20;95462.00;;;;8274194;28;20280;-70
2021/12/26 08:48:56;;;;;;;0.40;0.40;;;;;2.30;95451.00;;;;8271269;28;20298;-69
2021/12/26 08:53:02;;;;;;;0.50;0.50;;;;;2.40;95449.00;;;;8274442;28;20258;-70
2021/12/26 08:57:07;;;;;;;0.40;0.40;;;;;2.40;95463.00;;;;8269816;28;20325;-70
2021/12/26 09:01:10;;;;;;;0.40;0.40;;;;;2.50;95471.00;;;;8269327;28;20239;-70
2021/12/26 09:05:14;;;;;;;0.40;0.40;;;;;2.50;95476.00;;;;8268353;28;20667;-72
2021/12/26 09:09:19;;;;;;;0.40;0.40;;;;;2.60;95482.00;;;;8274132;28;20258;-71
2021/12/26 09:13:22;;;;;;;0.50;0.50;;;;;2.70;95492.00;;;;8277649;28;20245;-70
2021/12/26 09:17:25;;;;;;;0.50;0.50;;;;;2.70;95484.00;;;;8265782;28;20760;-70
2021/12/26 09:21:29;;;;;;;0.50;0.50;;;;;2.80;95488.00;;;;8278586;28;20352;-72
2021/12/26 09:25:33;;;;;;;0.40;0.40;;;;;2.70;95500.00;;;;8275266;28;20260;-69
2021/12/26 09:29:37;;;;;;;0.40;0.40;;;;;2.80;95506.00;;;;8277735;28;20406;-70
2021/12/26 09:33:40;;;;;;;0.40;0.40;;;;;2.90;95511.00;;;;8280758;28;20247;-71
2021/12/26 09:37:43;;;;;;;0.40;0.40;;;;;3.00;95509.00;;;;8280988;28;20228;-73
2021/12/26 09:41:53;;;;;;;0.40;0.40;;;;;3.10;95508.00;;;;8274562;28;20247;-74
2021/12/26 09:45:58;;;;;;;0.47;0.47;;;;;3.20;95516.00;;;;8282082;28;20399;-74
2021/12/26 09:50:02;;;;;;;0.40;0.40;;;;;3.20;95504.00;;;;8280929;28;20306;-75
2021/12/26 09:54:06;;;;;;;0.40;0.40;;;;;3.10;95504.00;;;;8283243;28;20699;-75
2021/12/26 09:58:11;;;;;;;0.50;0.50;;;;;3.30;95500.00;;;;8281616;28;21054;-76
2021/12/26 10:02:15;;;;;;;0.40;0.40;;;;;3.30;95502.00;;;;8281172;28;20456;-74
2021/12/26 10:06:21;;;;;;;0.50;0.50;;;;;3.30;95496.00;;;;8278281;28;20240;-75
2021/12/26 10:10:25;;;;;;;0.50;0.50;;;;;3.30;95499.00;;;;8276966;28;20244;-75
2021/12/26 10:14:33;;;;;;;0.50;0.50;;;;;3.20;95491.00;;;;8277504;28;20319;-75
2021/12/26 10:18:39;;;;;;;0.40;0.40;;;;;3.30;95480.00;;;;8277302;28;20919;-75
2021/12/26 10:22:42;;;;;;;0.40;0.40;;;;;3.30;95484.00;;;;8278685;28;20228;-74
2021/12/26 10:26:49;;;;;;;0.43;0.43;;;;;3.40;95470.00;;;;8276982;28;20264;-75
2021/12/26 10:30:54;;;;;;;0.40;0.40;;;;;3.50;95473.00;;;;8278251;28;20259;-75
2021/12/26 10:34:59;;;;;;;0.50;0.50;;;;;3.50;95474.00;;;;8274829;28;20229;-82
2021/12/26 10:39:12;;;;;;;0.50;0.50;;;;;3.60;95466.00;;;;8277163;28;20246;-82
2021/12/26 10:43:15;;;;;;;0.50;0.50;;;;;3.80;95462.00;;;;8279625;28;20308;-82
2021/12/26 10:47:23;;;;;;;0.50;0.50;;;;;3.80;95462.00;;;;8285571;28;20310;-80
2021/12/26 10:51:36;;;;;;;0.50;0.50;;;;;3.70;95462.00;;;;8285538;28;20258;-81
2021/12/26 10:55:41;;;;;;;0.40;0.40;;;;;3.80;95473.00;;;;8288037;28;20337;-80
2021/12/26 10:59:45;;;;;;;0.50;0.50;;;;;3.80;95466.00;;;;8284738;28;20308;-82
2021/12/26 11:03:50;;;;;;;0.50;0.50;;;;;3.90;95474.00;;;;8274992;28;20312;-78
2021/12/26 11:07:57;;;;;;;0.40;0.40;;;;;3.90;95485.00;;;;8284138;28;20731;-78
2021/12/26 11:12:02;;;;;;;0.40;0.40;;;;;4.10;95480.00;;;;8284943;28;20763;-80
2021/12/26 11:16:08;;;;;;;0.50;0.50;;;;;4.20;95483.00;;;;8283488;28;20312;-81
2021/12/26 11:20:28;;;;;;;0.50;0.50;;;;;4.10;95474.00;;;;8292310;28;20252;-82
2021/12/26 11:24:33;;;;;;;1.60;1.03;;;;;4.10;95471.00;;;;8275037;28;20276;-82
2021/12/26 11:28:38;;;;;;;1.37;1.23;;;;;4.10;95464.00;;;;8285321;28;20854;-77
2021/12/26 11:32:42;;;;;;;4.87;3.07;;;;;3.90;95468.00;;;;8285374;28;20310;-82
2021/12/26 11:36:51;;;;;;;4.77;3.47;;;;;3.70;95464.00;;;;8286500;28;20220;-82
2021/12/26 11:40:58;;;;;;;7.93;3.73;;;;;3.70;95450.00;;;;8285434;28;20225;-82
2021/12/26 11:45:11;;;;;;;5.57;3.10;;;;;3.80;95448.00;;;;8286198;28;20683;-82
2021/12/26 11:49:35;;;;;;;18.30;7.80;;;;;3.90;95440.00;;;;8284990;28;20228;-83
2021/12/26 11:54:02;;;;;;;9.77;4.60;;;;;3.80;95430.00;;;;8285563;28;20257;-81
2021/12/26 11:58:39;;;;;;;10.60;4.77;;;;;3.80;95429.00;;;;8281758;28;20319;-83
2021/12/26 12:02:44;;;;;;;15.10;6.40;;;;;3.70;95435.00;;;;8237536;28;20253;-83
2021/12/26 12:06:49;;;;;;;13.20;5.47;;;;;3.50;95427.00;;;;8284190;28;20232;-82
2021/12/26 12:10:59;;;;;;;14.17;5.70;;;;;3.50;95426.00;;;;8284644;28;20255;-83
2021/12/26 12:15:02;;;;;;;13.77;5.20;;;;;3.50;95429.00;;;;8283440;28;20263;-82
2021/12/26 12:19:11;;;;;;;15.13;5.80;;;;;3.70;95426.00;;;;8294795;28;20317;-82
2021/12/26 12:23:17;;;;;;;13.17;6.57;;;;;3.70;95420.00;;;;8287124;28;21115;-81
2021/12/26 12:27:23;;;;;;;18.20;6.73;;;;;3.80;95423.00;;;;8284974;28;20763;-81
2021/12/26 12:31:27;;;;;;;14.97;6.90;;;;;3.80;95428.00;;;;8272478;28;20321;-82
2021/12/26 12:35:49;;;;;;;17.10;7.10;;;;;4.00;95422.00;;;;8279877;28;20257;-84
2021/12/26 12:40:17;;;;;;;15.23;6.20;;;;;4.00;95423.00;;;;8279947;28;20346;-83
2021/12/26 12:44:30;;;;;;;16.07;6.93;;;;;4.10;95423.00;;;;8274973;28;20272;-84
2021/12/26 12:48:38;;;;;;;14.50;6.90;;;;;4.00;95419.00;;;;8282108;28;20248;-84
2021/12/26 12:52:44;;;;;;;9.53;4.47;;;;;3.90;95421.00;;;;8283299;28;20279;-83
2021/12/26 12:56:47;;;;;;;16.80;6.87;;;;;3.90;95425.00;;;;8282237;28;20638;-83
2021/12/26 13:00:52;;;;;;;15.83;6.37;;;;;3.90;95423.00;;;;8296397;28;20680;-82
2021/12/26 13:04:55;;;;;;;16.37;6.20;;;;;4.00;95422.00;;;;8271886;28;20300;-82
2021/12/26 13:08:58;;;;;;;14.30;6.23;;;;;4.00;95414.00;;;;8279587;28;20397;-81
2021/12/26 13:13:07;;;;;;;11.33;6.17;;;;;4.20;95413.00;;;;8278452;28;20226;-72
2021/12/26 13:17:13;;;;;;;10.60;6.33;;;;;4.30;95410.00;;;;8274912;28;20700;-73
2021/12/26 13:21:19;;;;;;;10.70;6.30;;;;;4.40;95421.00;;;;8275166;28;20335;-73
2021/12/26 13:25:28;;;;;;;14.23;6.53;;;;;4.30;95418.00;;;;8272572;28;20261;-73
2021/12/26 13:29:32;;;;;;;16.40;5.93;;;;;4.40;95416.00;;;;8277632;28;20643;-73
2021/12/26 13:33:37;;;;;;;16.63;7.60;;;;;4.40;95416.00;;;;8277781;28;20221;-73
2021/12/26 13:37:41;;;;;;;14.50;6.77;;;;;4.30;95412.00;;;;8281144;28;20258;-73
2021/12/26 13:41:45;;;;;;;14.67;7.10;;;;;4.20;95420.00;;;;8269663;28;20320;-72
2021/12/26 13:45:53;;;;;;;15.00;6.43;;;;;4.10;95423.00;;;;8267128;28;20257;-73
2021/12/26 13:50:09;;;;;;;14.57;5.93;;;;;4.00;95425.00;;;;8279127;28;20287;-73
2021/12/26 13:54:25;;;;;;;17.77;7.13;;;;;4.00;95416.00;;;;8275399;28;20240;-73
2021/12/26 13:58:36;;;;;;;13.57;6.70;;;;;4.00;95419.00;;;;8266142;28;20813;-73
2021/12/26 14:02:40;;;;;;;12.97;6.13;;;;;4.00;95417.00;;;;8272943;28;20838;-73
2021/12/26 14:06:44;;;;;;;12.43;5.90;;;;;4.00;95424.00;;;;8280587;28;20241;-73
2021/12/26 14:10:56;;;;;;;14.23;6.27;;;;;4.00;95434.00;;;;8283016;28;20655;-73
2021/12/26 14:15:30;;;;;;;13.77;6.60;;;;;3.90;95427.00;;;;8282546;28;20256;-73
2021/12/26 14:19:34;;;;;;;13.87;5.53;;;;;3.90;95428.00;;;;8283032;28;20229;-73
2021/12/26 14:23:41;;;;;;;12.07;5.97;;;;;3.80;95429.00;;;;8283485;28;20239;-74
2021/12/26 14:27:45;;;;;;;13.57;6.33;;;;;3.80;95427.00;;;;8281763;28;20325;-73
2021/12/26 14:31:50;;;;;;;18.13;6.27;;;;;3.80;95422.00;;;;8281611;28;20983;-73
2021/12/26 14:36:01;;;;;;;13.03;6.80;;;;;3.80;95424.00;;;;8280676;28;20436;-74
2021/12/26 14:40:11;;;;;;;12.37;6.37;;;;;3.70;95420.00;;;;8278249;28;20272;-73
2021/12/26 14:44:18;;;;;;;14.13;6.93;;;;;3.70;95427.00;;;;8277945;28;20367;-73
2021/12/26 14:48:34;;;;;;;11.97;6.10;;;;;3.70;95421.00;;;;8277149;28;20252;-74
2021/12/26 14:52:42;;;;;;;11.57;5.67;;;;;3.70;95436.00;;;;8277235;28;20660;-74
2021/12/26 14:56:51;;;;;;;11.70;7.10;;;;;3.60;95431.00;;;;8271587;28;20228;-74
2021/12/26 15:00:55;;;;;;;17.13;6.57;;;;;3.60;95433.00;;;;8274788;28;20229;-74
2021/12/26 15:05:03;;;;;;;11.07;6.00;;;;;3.60;95430.00;;;;8278019;28;20239;-74
2021/12/26 15:09:07;;;;;;;16.93;9.27;;;;;3.60;95434.00;;;;8273310;28;20315;-74
2021/12/26 15:13:14;;;;;;;16.23;6.67;;;;;3.60;95435.00;;;;8279092;28;20240;-74
2021/12/26 15:17:19;;;;;;;13.33;5.90;;;;;3.50;95434.00;;;;8277301;28;20229;-74
2021/12/26 15:21:30;;;;;;;18.23;7.77;;;;;3.50;95436.00;;;;8278568;28;20230;-74
2021/12/26 15:25:38;;;;;;;17.97;7.33;;;;;3.40;95442.00;;;;8274995;28;20316;-74
2021/12/26 15:29:42;;;;;;;22.27;10.57;;;;;3.40;95434.00;;;;8264937;28;20256;-74
2021/12/26 15:33:48;;;;;;;34.83;22.90;;;;;3.40;95430.00;;;;8259908;28;20233;-74
2021/12/26 15:37:51;;;;;;;16.10;7.43;;;;;3.30;95435.00;;;;8274668;28;20242;-75
2021/12/26 15:41:55;;;;;;;21.40;8.67;;;;;3.30;95436.00;;;;8278328;28;20254;-74
2021/12/26 15:46:04;;;;;;;26.30;8.37;;;;;3.30;95441.00;;;;8274747;28;20260;-74
2021/12/26 15:50:08;;;;;;;29.13;13.83;;;;;3.40;95434.00;;;;8275185;28;20231;-73
2021/12/26 15:54:13;;;;;;;28.03;11.30;;;;;3.40;95447.00;;;;8279320;28;20233;-72
2021/12/26 15:58:19;;;;;;;21.60;9.87;;;;;3.40;95446.00;;;;8274664;28;20235;-73
2021/12/26 16:02:24;;;;;;;28.37;12.67;;;;;3.30;95448.00;;;;8275798;28;20291;-73
2021/12/26 16:06:29;;;;;;;42.33;19.80;;;;;3.40;95444.00;;;;8276344;28;20258;-69
2021/12/26 16:10:32;;;;;;;27.40;11.87;;;;;3.40;95452.00;;;;8279567;28;20264;-69
2021/12/26 16:14:35;;;;;;;29.53;15.90;;;;;3.40;95458.00;;;;8275638;28;20220;-69
2021/12/26 16:18:40;;;;;;;17.40;7.67;;;;;3.30;95458.00;;;;8275917;28;20353;-69
2021/12/26 16:22:44;;;;;;;13.57;6.60;;;;;3.20;95454.00;;;;8273052;28;20242;-71
2021/12/26 16:26:47;;;;;;;12.53;6.53;;;;;3.20;95460.00;;;;8276123;28;20350;-70
2021/12/26 16:30:54;;;;;;;6.70;4.03;;;;;3.00;95465.00;;;;8268345;28;20233;-69
2021/12/26 16:34:58;;;;;;;6.17;4.10;;;;;2.90;95458.00;;;;8281265;28;20240;-70
2021/12/26 16:39:02;;;;;;;10.47;5.07;;;;;2.80;95459.00;;;;8276874;28;20260;-73
2021/12/26 16:43:05;;;;;;;9.00;4.90;;;;;2.70;95468.00;;;;8286593;28;20322;-70
2021/12/26 16:47:08;;;;;;;15.73;5.47;;;;;2.70;95468.00;;;;8279408;28;20385;-72
2021/12/26 16:51:13;;;;;;;11.00;4.80;;;;;2.60;95452.00;;;;8269338;28;20231;-71
2021/12/26 16:55:16;;;;;;;11.33;4.87;;;;;2.60;95460.00;;;;8273692;28;20310;-70
2021/12/26 16:59:20;;;;;;;14.20;4.83;;;;;2.60;95461.00;;;;8262666;28;20275;-68
2021/12/26 17:03:23;;;;;;;8.23;4.97;;;;;2.50;95467.00;;;;8275805;28;20330;-69
2021/12/26 17:07:30;;;;;;;18.77;6.00;;;;;2.50;95463.00;;;;8262817;28;20275;-69
2021/12/26 17:11:33;;;;;;;10.53;4.53;;;;;2.50;95458.00;;;;8273218;28;20255;-69
2021/12/26 17:15:38;;;;;;;25.60;7.63;;;;;2.50;95444.00;;;;8274416;28;20222;-70
2021/12/26 17:19:41;;;;;;;10.33;4.90;;;;;2.50;95439.00;;;;8255783;28;20250;-70
2021/12/26 17:23:46;;;;;;;13.80;5.20;;;;;2.40;95440.00;;;;8271880;28;20261;-69
2021/12/26 17:27:50;;;;;;;8.23;5.03;;;;;2.40;95437.00;;;;8286867;28;20236;-69
2021/12/26 17:31:54;;;;;;;8.77;4.63;;;;;2.50;95446.00;;;;8283795;28;20249;-69
2021/12/26 17:35:57;;;;;;;10.77;4.77;;;;;2.50;95448.00;;;;8277638;28;20227;-69
2021/12/26 17:40:01;;;;;;;12.43;5.83;;;;;2.50;95462.00;;;;8268483;28;20724;-70
2021/12/26 17:44:05;;;;;;;12.63;5.83;;;;;2.50;95445.00;;;;8268650;28;20312;-70
2021/12/26 17:48:08;;;;;;;12.30;5.43;;;;;2.60;95467.00;;;;8264094;28;20732;-69
2021/12/26 17:52:11;;;;;;;10.70;5.73;;;;;2.60;95468.00;;;;8260722;28;21093;-68
2021/12/26 17:56:16;;;;;;;12.10;5.30;;;;;2.60;95464.00;;;;8260153;28;20225;-69
2021/12/26 18:00:21;;;;;;;12.73;5.07;;;;;2.60;95464.00;;;;8264606;28;20232;-68
2021/12/26 18:04:24;;;;;;;13.30;6.50;;;;;2.70;95465.00;;;;8264241;28;21684;-67
2021/12/26 18:08:28;;;;;;;14.50;6.07;;;;;2.70;95459.00;;;;8258126;28;20321;-68
2021/12/26 18:12:32;;;;;;;15.47;5.67;;;;;2.60;95458.00;;;;8267823;28;20259;-70
2021/12/26 18:16:36;;;;;;;15.47;5.87;;;;;2.60;95465.00;;;;8261255;28;20336;-69
2021/12/26 18:20:40;;;;;;;13.10;5.80;;;;;2.60;95462.00;;;;8267722;28;20560;-68
2021/12/26 18:24:44;;;;;;;13.17;6.00;;;;;2.70;95463.00;;;;8264417;28;20343;-70
2021/12/26 18:28:49;;;;;;;9.83;5.10;;;;;2.70;95459.00;;;;8267280;28;20261;-71
2021/12/26 18:32:55;;;;;;;12.67;5.83;;;;;2.60;95459.00;;;;8264662;28;20825;-69
2021/12/26 18:36:59;;;;;;;10.03;5.67;;;;;2.60;95460.00;;;;8262603;28;20318;-70
2021/12/26 18:41:03;;;;;;;16.50;6.23;;;;;2.60;95458.00;;;;8274242;28;22732;-69
2021/12/26 18:45:10;;;;;;;13.33;5.87;;;;;2.60;95451.00;;;;8266397;28;20303;-69
2021/12/26 18:49:14;;;;;;;13.20;5.83;;;;;2.70;95448.00;;;;8264880;28;20236;-70
2021/12/26 18:53:19;;;;;;;13.93;6.17;;;;;2.70;95448.00;;;;8268490;28;20239;-70
2021/12/26 18:57:22;;;;;;;13.23;5.87;;;;;2.70;95446.00;;;;8270336;28;20244;-70
2021/12/26 19:01:30;;;;;;;13.80;5.90;;;;;2.70;95444.00;;;;8266307;28;20246;-70
2021/12/26 19:05:40;;;;;;;14.97;6.70;;;;;2.70;95448.00;;;;8275488;28;20235;-70
2021/12/26 19:09:44;;;;;;;14.47;5.87;;;;;2.70;95443.00;;;;8272818;28;20266;-70
2021/12/26 19:13:47;;;;;;;15.20;6.73;;;;;2.50;95458.00;;;;8272098;28;20226;-73
2021/12/26 19:17:52;;;;;;;17.20;7.37;;;;;2.60;95460.00;;;;8278369;28;20314;-70
2021/12/26 19:21:55;;;;;;;15.87;7.33;;;;;2.60;95458.00;;;;8278065;28;21739;-70
2021/12/26 19:25:59;;;;;;;12.53;6.50;;;;;2.60;95464.00;;;;8273449;28;20278;-69
2021/12/26 19:30:03;;;;;;;14.80;7.83;;;;;2.60;95450.00;;;;8276990;28;20635;-72
2021/12/26 19:34:08;;;;;;;16.53;7.20;;;;;2.60;95453.00;;;;8276333;28;20263;-72
2021/12/26 19:38:11;;;;;;;15.80;6.77;;;;;2.60;95444.00;;;;8272700;28;20218;-70
2021/12/26 19:42:17;;;;;;;17.53;7.33;;;;;2.50;95437.00;;;;8271637;28;20248;-70
2021/12/26 19:46:23;;;;;;;17.57;7.57;;;;;2.50;95436.00;;;;8279100;28;20255;-69
2021/12/26 19:50:28;;;;;;;16.20;7.50;;;;;2.50;95434.00;;;;8274485;28;20232;-70
2021/12/26 19:54:32;;;;;;;14.70;6.67;;;;;2.50;95440.00;;;;8272823;28;20255;-69
2021/12/26 19:58:35;;;;;;;18.10;7.53;;;;;2.50;95439.00;;;;8273221;28;20303;-70
2021/12/26 20:02:38;;;;;;;15.27;6.97;;;;;2.50;95439.00;;;;8273093;28;20259;-70
2021/12/26 20:06:44;;;;;;;19.60;7.03;;;;;2.40;95431.00;;;;8277968;28;20278;-70
2021/12/26 20:10:49;;;;;;;21.73;8.13;;;;;2.50;95426.00;;;;8273684;28;20320;-71
2021/12/26 20:14:53;;;;;;;17.77;7.63;;;;;2.50;95434.00;;;;8276154;28;20225;-70
2021/12/26 20:18:56;;;;;;;17.13;8.10;;;;;2.50;95420.00;;;;8275678;28;20747;-70
2021/12/26 20:23:01;;;;;;;16.63;8.13;;;;;2.50;95426.00;;;;8275075;28;20341;-70
2021/12/26 20:27:05;;;;;;;16.20;8.00;;;;;2.50;95411.00;;;;8284353;28;20252;-70
2021/12/26 20:31:08;;;;;;;13.07;6.50;;;;;2.50;95411.00;;;;8281352;28;20316;-70
2021/12/26 20:35:12;;;;;;;18.37;7.93;;;;;2.40;95424.00;;;;8270711;28;22920;-69
2021/12/26 20:39:18;;;;;;;18.17;8.57;;;;;2.40;95434.00;;;;8272737;28;20417;-71
2021/12/26 20:43:21;;;;;;;21.40;8.30;;;;;2.40;95427.00;;;;8272606;28;20309;-69
2021/12/26 20:47:24;;;;;;;18.83;9.07;;;;;2.40;95429.00;;;;8275092;28;20953;-69